ADDS METAR Data INFO
IDs: Format: Raw Decoded Include TAF

Data at: 0937 UTC 11 Dec 2017

KSEM 110915Z AUTO 00000KT 10SM CLR M02/M03 A3025 RMK AO2 TSNO
KSEM 110855Z AUTO 00000KT 10SM CLR M02/M03 A3026 RMK AO2 TSNO
KSEM 110835Z AUTO 00000KT 10SM CLR M01/M02 A3026 RMK AO2 TSNO
KSEM 110815Z AUTO 00000KT 10SM CLR M02/M03 A3026 RMK AO2 TSNO
KSEM 110755Z AUTO 00000KT 10SM CLR M02/M02 A3027 RMK AO2 TSNO
KSEM 110735Z AUTO 00000KT 10SM CLR M02/M03 A3028 RMK AO2 TSNO
KSEM 110715Z AUTO 00000KT 10SM CLR M02/M03 A3028 RMK AO2 TSNO
KSEM 110655Z AUTO 00000KT 10SM CLR M02/M03 A3028 RMK AO2 TSNO
KSEM 110635Z AUTO 00000KT 10SM CLR M02/M03 A3029 RMK AO2 TSNO
KSEM 110615Z AUTO 14003KT 10SM CLR M02/M03 A3029 RMK AO2 TSNO
KSEM 110555Z AUTO 14003KT 10SM CLR M02/M03 A3030 RMK AO2 TSNO
KSEM 110535Z AUTO 00000KT 10SM CLR M01/M02 A3030 RMK AO2 TSNO
KSEM 110515Z AUTO 00000KT 10SM CLR M01/M02 A3030 RMK AO2 TSNO
KSEM 110455Z AUTO 00000KT 10SM CLR M01/M02 A3029 RMK AO2 TSNO
KSEM 110435Z AUTO 17004KT 10SM CLR M02/M03 A3028 RMK AO2 TSNO
KSEM 110415Z AUTO 15003KT 10SM CLR M01/M03 A3029 RMK AO2 TSNO
KSEM 110355Z AUTO 16003KT 10SM CLR M02/M03 A3030 RMK AO2 TSNO
KSEM 110335Z AUTO 17003KT 10SM CLR 00/M02 A3030 RMK AO2 TSNO
KSEM 110315Z AUTO 18003KT 10SM CLR 00/M02 A3030 RMK AO2 TSNO
KSEM 110255Z AUTO 18005KT 10SM CLR M01/M02 A3030 RMK AO2 TSNO
KSEM 110235Z AUTO 18004KT 10SM CLR M01/M02 A3030 RMK AO2 TSNO
KSEM 110215Z AUTO 16003KT 10SM CLR M01/M02 A3030 RMK AO2 TSNO
KSEM 110155Z AUTO 17004KT 10SM CLR M01/M02 A3030 RMK AO2 TSNO
KSEM 110135Z AUTO 16004KT 10SM CLR M01/M02 A3030 RMK AO2 TSNO
KSEM 110115Z AUTO 00000KT 10SM CLR 01/M00 A3031 RMK AO2 TSNO
KSEM 110055Z AUTO 15004KT 10SM CLR 00/M01 A3030 RMK AO2 TSNO
KSEM 110035Z AUTO 15004KT 10SM CLR 00/M01 A3030 RMK AO2 TSNO
KSEM 110015Z AUTO 14003KT 10SM CLR 02/00 A3029 RMK AO2 TSNO
KSEM 102355Z AUTO 00000KT 10SM CLR 02/M00 A3029 RMK AO2 TSNO
KSEM 102335Z AUTO 00000KT 10SM CLR 03/00 A3029 RMK AO2 TSNO
KSEM 102315Z AUTO 00000KT 10SM CLR 05/01 A3028 RMK AO2 TSNO
KSEM 102255Z AUTO 00000KT 10SM CLR 05/M00 A3028 RMK AO2 TSNO
KSEM 102235Z AUTO 22003KT 10SM CLR 08/M02 A3028 RMK AO2 TSNO
KSEM 102215Z AUTO 23005KT 10SM CLR 09/M03 A3028 RMK AO2 TSNO
KSEM 102155Z AUTO 25005KT 10SM CLR 10/M04 A3029 RMK AO2 TSNO
KSEM 102135Z AUTO 26003KT 10SM CLR 10/M03 A3028 RMK AO2 TSNO
KSEM 102115Z AUTO 29006KT 10SM CLR 10/M04 A3029 RMK AO2 TSNO
KSEM 102055Z AUTO 25006KT 10SM CLR 10/M03 A3029 RMK AO2 TSNO
KSEM 102035Z AUTO 26008KT 10SM CLR 10/M04 A3030 RMK AO2 TSNO
KSEM 102015Z AUTO 25006G11KT 10SM CLR 10/M03 A3031 RMK AO2 TSNO
KSEM 101955Z AUTO 29008KT 10SM CLR 09/M03 A3031 RMK AO2 TSNO
KSEM 101935Z AUTO 28006KT 10SM CLR 09/M04 A3031 RMK AO2 TSNO
KSEM 101915Z AUTO 24007KT 10SM CLR 09/M03 A3032 RMK AO2 TSNO
KSEM 101855Z AUTO 25008KT 10SM CLR 09/M03 A3033 RMK AO2 TSNO
KSEM 101835Z AUTO 27005KT 10SM CLR 08/M03 A3034 RMK AO2 TSNO
KSEM 101815Z AUTO 21006KT 10SM CLR 08/M02 A3035 RMK AO2 TSNO
KSEM 101755Z AUTO VRB05KT 10SM CLR 07/M02 A3036 RMK AO2 TSNO
KSEM 101735Z AUTO 27005KT 10SM CLR 07/M02 A3037 RMK AO2 TSNO
KSEM 101715Z AUTO 29005KT 10SM CLR 06/M02 A3039 RMK AO2 TSNO
KSEM 101655Z AUTO 24003KT 10SM CLR 06/M03 A3039 RMK AO2 TSNO
KSEM 101635Z AUTO 28005KT 10SM CLR 05/M03 A3039 RMK AO2 TSNO
KSEM 101615Z AUTO 21005KT 10SM CLR 05/M02 A3039 RMK AO2 TSNO
KSEM 101555Z AUTO 26003KT 10SM CLR 04/M01 A3039 RMK AO2 TSNO
KSEM 101535Z AUTO 25004KT 10SM CLR 03/M01 A3039 RMK AO2 TSNO
KSEM 101515Z AUTO 00000KT 10SM CLR 02/M00 A3039 RMK AO2 TSNO
KSEM 101455Z AUTO 00000KT 10SM CLR 01/M00 A3039 RMK AO2 TSNO
KSEM 101435Z AUTO 00000KT 10SM FEW002 00/M01 A3038 RMK AO2 TSNO
KSEM 101415Z AUTO 00000KT 2SM BR BKN002 M01/M02 A3038 RMK AO2 TSNO
KSEM 101355Z AUTO 00000KT 1/4SM FZFG BKN002 M02/M03 A3037 RMK AO2 TSNO
KSEM 101335Z AUTO 00000KT 10SM OVC002 M03/M04 A3037 RMK AO2 TSNO
KSEM 101315Z AUTO 00000KT 10SM BKN002 M04/M05 A3037 RMK AO2 TSNO
KSEM 101255Z AUTO 00000KT 10SM SCT002 M04/M05 A3036 RMK AO2 TSNO
KSEM 101235Z AUTO 00000KT 10SM CLR M04/M05 A3035 RMK AO2 TSNO
KSEM 101215Z AUTO 00000KT 10SM CLR M04/M05 A3034 RMK AO2 TSNO
KSEM 101155Z AUTO 00000KT 10SM SCT002 M04/M05 A3034 RMK AO2 TSNO
KSEM 101135Z AUTO 00000KT 10SM BKN002 M04/M05 A3034 RMK AO2 TSNO
KSEM 101115Z AUTO 00000KT 1SM BR CLR M04/M05 A3034 RMK AO2 TSNO
KSEM 101055Z AUTO 00000KT 10SM CLR M04/M05 A3033 RMK AO2 TSNO
KSEM 101035Z AUTO 00000KT 10SM CLR M03/M04 A3032 RMK AO2 TSNO
KSEM 101015Z AUTO 00000KT 10SM CLR M03/M04 A3032 RMK AO2 TSNO
KSEM 100955Z AUTO 00000KT 10SM CLR M03/M03 A3032 RMK AO2 TSNO
KSEM 100935Z AUTO 00000KT 10SM CLR M02/M03 A3032 RMK AO2 TSNO
KSEM 100915Z AUTO 00000KT 10SM CLR M03/M04 A3032 RMK AO2 TSNO
KSEM 100855Z AUTO 17003KT 10SM CLR M03/M04 A3032 RMK AO2 TSNO
KSEM 100835Z AUTO 17003KT 10SM CLR M03/M04 A3031 RMK AO2 TSNO
KSEM 100815Z AUTO 00000KT 10SM CLR M03/M04 A3030 RMK AO2 TSNO
KSEM 100755Z AUTO 12004KT 10SM CLR M02/M03 A3030 RMK AO2 TSNO
KSEM 100735Z AUTO 00000KT 10SM CLR M02/M03 A3030 RMK AO2 TSNO
KSEM 100715Z AUTO 00000KT 10SM CLR M01/M02 A3029 RMK AO2 TSNO
KSEM 100655Z AUTO 00000KT 10SM CLR M01/M02 A3028 RMK AO2 TSNO
KSEM 100635Z AUTO 33004KT 10SM CLR M01/M02 A3028 RMK AO2 TSNO
KSEM 100615Z AUTO 32004KT 10SM CLR M01/M02 A3028 RMK AO2 TSNO
KSEM 100555Z AUTO 00000KT 10SM CLR 00/M02 A3028 RMK AO2 TSNO
KSEM 100535Z AUTO 29004KT 10SM CLR 01/M02 A3027 RMK AO2 TSNO
KSEM 100515Z AUTO 00000KT 10SM CLR 01/M01 A3027 RMK AO2 TSNO
KSEM 100455Z AUTO 28004KT 10SM CLR 01/M01 A3026 RMK AO2 TSNO
KSEM 100435Z AUTO 27007KT 10SM CLR 02/M01 A3026 RMK AO2 TSNO
KSEM 100415Z AUTO 27005KT 10SM CLR 02/M01 A3024 RMK AO2 TSNO
KSEM 100355Z AUTO 27005KT 10SM CLR 02/M01 A3023 RMK AO2 TSNO
KSEM 100335Z AUTO 26007KT 10SM CLR 02/M01 A3022 RMK AO2 TSNO
KSEM 100315Z AUTO 25007KT 10SM CLR 03/M01 A3021 RMK AO2 TSNO
KSEM 100255Z AUTO 25007KT 10SM CLR 02/M01 A3020 RMK AO2 TSNO
KSEM 100235Z AUTO 26007KT 10SM CLR 02/M01 A3020 RMK AO2 TSNO
KSEM 100215Z AUTO 25005KT 10SM CLR 02/M01 A3019 RMK AO2 TSNO
KSEM 100155Z AUTO 24004KT 10SM CLR 02/M01 A3018 RMK AO2 TSNO
KSEM 100135Z AUTO 25005KT 10SM CLR 02/M01 A3018 RMK AO2 TSNO
KSEM 100115Z AUTO 23006KT 10SM CLR 03/M01 A3017 RMK AO2 TSNO
KSEM 100055Z AUTO 23005KT 10SM CLR 03/M01 A3017 RMK AO2 TSNO
KSEM 100035Z AUTO 23005KT 10SM CLR 03/M01 A3016 RMK AO2 TSNO
KSEM 100015Z AUTO 24006KT 10SM CLR 03/M01 A3015 RMK AO2 TSNO
KSEM 092355Z AUTO 22004KT 10SM CLR 02/M01 A3015 RMK AO2 TSNO
KSEM 092335Z AUTO 22003KT 10SM CLR 03/M01 A3013 RMK AO2 TSNO
KSEM 092315Z AUTO 22005KT 10SM CLR 03/M01 A3012 RMK AO2 TSNO
KSEM 092255Z AUTO 23004KT 10SM CLR 04/M01 A3011 RMK AO2 TSNO
KSEM 092235Z AUTO 23005KT 10SM CLR 04/M01 A3010 RMK AO2 TSNO
KSEM 092215Z AUTO 24009KT 10SM CLR 05/M01 A3010 RMK AO2 TSNO
KSEM 092155Z AUTO 25007KT 10SM CLR 06/M01 A3009 RMK AO2 TSNO